Time;durP1;ratioP1;P1;durP2;ratioP2;P2;SDS_P1;SDS_P2;PMS_P1;PMS_P2;Temp;Humidity;BMP_temperature;BMP_pressure;BME280_temperature;BME280_humidity;BME280_pressure;Samples;Min_cycle;Max_cycle;Signal;HPM_P1;HPM_P2
2023/03/06 00:01:24;;;;;;;;;;;22.50;77.30;;;;;;1795338;78;20264;-88
2023/03/06 00:03:54;;;;;;;;;;;22.50;77.70;;;;;;1791274;79;20227;-87
2023/03/06 00:06:24;;;;;;;;;;;22.40;77.60;;;;;;1791548;78;20223;-88
2023/03/06 00:08:54;;;;;;;;;;;22.50;77.40;;;;;;1799790;78;20172;-87
2023/03/06 00:11:24;;;;;;;;;;;22.50;77.10;;;;;;1762484;80;20230;-88
2023/03/06 00:13:54;;;;;;;;;;;22.50;77.40;;;;;;1837706;77;20329;-88
2023/03/06 00:16:23;;;;;;;;;;;22.50;77.80;;;;;;1824049;77;20211;-88
2023/03/06 00:18:53;;;;;;;;;;;22.40;77.60;;;;;;1792557;78;20237;-87
2023/03/06 00:21:23;;;;;;;;;;;22.50;78.00;;;;;;1777224;78;20611;-89
2023/03/06 00:23:53;;;;;;;;;;;22.50;77.90;;;;;;1824070;79;20215;-89
2023/03/06 00:26:23;;;;;;;;;;;22.50;77.70;;;;;;1832456;77;20249;-88
2023/03/06 00:28:53;;;;;;;;;;;22.50;77.70;;;;;;1842309;77;20177;-88
2023/03/06 00:31:23;;;;;;;;;;;22.60;77.80;;;;;;1830798;77;20199;-89
2023/03/06 00:33:53;;;;;;;;;;;22.50;77.40;;;;;;1827469;77;20191;-88
2023/03/06 00:36:23;;;;;;;;;;;22.60;77.50;;;;;;1834399;77;20503;-89
2023/03/06 00:38:53;;;;;;;;;;;22.60;77.50;;;;;;1827164;77;20125;-89
2023/03/06 00:41:26;;;;;;;;;;;22.60;77.50;;;;;;1845003;77;20161;-88
2023/03/06 00:43:54;;;;;;;;;;;22.70;77.70;;;;;;1853321;76;20127;-89
2023/03/06 00:46:25;;;;;;;;;;;22.70;77.40;;;;;;1789484;80;20133;-88
2023/03/06 00:48:55;;;;;;;;;;;22.60;77.30;;;;;;1791802;80;20125;-87
2023/03/06 00:51:25;;;;;;;;;;;22.60;77.10;;;;;;1799331;79;20192;-88
2023/03/06 00:53:55;;;;;;;;;;;22.70;77.20;;;;;;1760481;80;20235;-87
2023/03/06 00:56:25;;;;;;;;;;;22.70;77.20;;;;;;1792142;78;20135;-88
2023/03/06 00:58:55;;;;;;;;;;;22.70;77.10;;;;;;1769878;80;20456;-88
2023/03/06 01:01:25;;;;;;;;;;;22.70;77.40;;;;;;1770438;80;20198;-88
2023/03/06 01:03:55;;;;;;;;;;;22.80;77.10;;;;;;1851688;77;20193;-89
2023/03/06 01:06:26;;;;;;;;;;;22.80;76.80;;;;;;1854615;75;20405;-88
2023/03/06 01:08:55;;;;;;;;;;;22.80;77.10;;;;;;1840743;76;20187;-89
2023/03/06 01:11:25;;;;;;;;;;;22.80;77.10;;;;;;1870817;75;20227;-87
2023/03/06 01:13:55;;;;;;;;;;;22.90;77.10;;;;;;1851281;77;20173;-89
2023/03/06 01:16:25;;;;;;;;;;;22.90;77.10;;;;;;1861680;76;20265;-89
2023/03/06 01:30:41;;;;;;;;;;;23.00;76.70;;;;;;1720113;82;20236;-88
2023/03/06 01:33:32;;;;;;;;;;;23.10;76.70;;;;;;1745891;78;20220;-89
2023/03/06 01:35:58;;;;;;;;;;;23.10;76.40;;;;;;1802123;78;20122;-89
2023/03/06 01:38:31;;;;;;;;;;;23.10;76.40;;;;;;1866414;75;20194;-88
2023/03/06 01:41:02;;;;;;;;;;;23.20;76.50;;;;;;1870772;76;20181;-89
2023/03/06 01:43:34;;;;;;;;;;;23.10;76.60;;;;;;1859788;77;20190;-87
2023/03/06 01:46:17;;;;;;;;;;;23.20;76.30;;;;;;1857251;76;20224;-86
2023/03/06 01:48:48;;;;;;;;;;;23.30;76.60;;;;;;1854649;76;20173;-86
2023/03/06 01:51:21;;;;;;;;;;;23.30;76.50;;;;;;1810960;78;20235;-87
2023/03/06 01:53:55;;;;;;;;;;;23.40;76.20;;;;;;1795786;78;20242;-89
2023/03/06 01:56:25;;;;;;;;;;;23.40;76.00;;;;;;1833109;77;20136;-87
2023/03/06 01:58:59;;;;;;;;;;;23.50;75.70;;;;;;1844375;77;20312;-88
2023/03/06 02:01:32;;;;;;;;;;;23.50;75.70;;;;;;1858871;76;20208;-88
2023/03/06 02:04:05;;;;;;;;;;;23.50;75.80;;;;;;1847499;76;20197;-89
2023/03/06 02:06:37;;;;;;;;;;;23.50;76.00;;;;;;1847960;77;20186;-87
2023/03/06 02:09:08;;;;;;;;;;;23.50;75.70;;;;;;1838878;76;20415;-87
2023/03/06 02:11:44;;;;;;;;;;;23.60;76.10;;;;;;1853352;76;20130;-85
2023/03/06 02:14:14;;;;;;;;;;;23.60;76.00;;;;;;1845189;76;20413;-86
2023/03/06 02:16:44;;;;;;;;;;;23.60;75.50;;;;;;1872700;76;20132;-86
2023/03/06 02:19:32;;;;;;;;;;;23.60;75.10;;;;;;1861188;76;20213;-85
2023/03/06 02:22:02;;;;;;;;;;;23.70;75.20;;;;;;1851094;76;20189;-84
2023/03/06 02:24:40;;;;;;;;;;;23.80;75.30;;;;;;1829578;76;20454;-85
2023/03/06 02:27:13;;;;;;;;;;;23.90;75.30;;;;;;1849710;76;20246;-85
2023/03/06 02:29:43;;;;;;;;;;;23.90;74.90;;;;;;1854127;76;20273;-84
2023/03/06 02:32:26;;;;;;;;;;;24.00;74.90;;;;;;1870340;75;20258;-83
2023/03/06 02:35:23;;;;;;;;;;;24.00;74.50;;;;;;1863977;75;20222;-85
2023/03/06 02:38:27;;;;;;;;;;;24.10;73.90;;;;;;1867994;75;20257;-82
2023/03/06 02:40:54;;;;;;;;;;;24.20;73.20;;;;;;1867917;76;20192;-82
2023/03/06 02:43:25;;;;;;;;;;;24.30;72.50;;;;;;1872274;77;20467;-83
2023/03/06 02:45:55;;;;;;;;;;;24.30;72.30;;;;;;1868004;76;20185;-86
2023/03/06 02:48:25;;;;;;;;;;;24.40;72.40;;;;;;1852639;76;20392;-88
2023/03/06 02:51:01;;;;;;;;;;;24.40;72.20;;;;;;1845227;76;20554;-88
2023/03/06 02:54:18;;;;;;;;;;;;;;;;;;;;;
2023/03/06 02:56:45;;;;;;;;;;;24.60;71.70;;;;;;1843898;76;20449;-84
2023/03/06 02:59:20;;;;;;;;;;;24.70;71.40;;;;;;1847589;77;20135;-84
2023/03/06 03:01:59;;;;;;;;;;;24.80;70.80;;;;;;1851715;77;20194;-89
2023/03/06 03:04:31;;;;;;;;;;;24.90;70.40;;;;;;1829580;78;20427;-89
2023/03/06 03:07:19;;;;;;;;;;;25.00;69.90;;;;;;1853340;76;20240;-87
2023/03/06 03:10:20;;;;;;;;;;;25.10;69.90;;;;;;1812965;76;20770;-89
2023/03/06 03:12:51;;;;;;;;;;;25.20;69.60;;;;;;1813604;77;20334;-88
2023/03/06 03:15:20;;;;;;;;;;;25.30;69.20;;;;;;1855171;77;20186;-88
2023/03/06 03:17:50;;;;;;;;;;;25.30;68.90;;;;;;1856482;77;20162;-88
2023/03/06 03:30:25;;;;;;;;;;;25.70;68.50;;;;;;1756266;81;20140;-81
2023/03/06 03:33:11;;;;;;;;;;;25.80;68.10;;;;;;1748268;81;20189;-83
2023/03/06 03:35:38;;;;;;;;;;;25.90;68.40;;;;;;1747747;81;20642;-83
2023/03/06 03:38:08;;;;;;;;;;;26.00;67.50;;;;;;1734601;81;20318;-82
2023/03/06 03:40:38;;;;;;;;;;;26.10;66.90;;;;;;1734364;81;20270;-85
2023/03/06 03:43:08;;;;;;;;;;;26.20;66.60;;;;;;1738372;81;20299;-86
2023/03/06 03:45:39;;;;;;;;;;;26.30;66.90;;;;;;1730942;81;20591;-86
2023/03/06 03:48:09;;;;;;;;;;;26.40;66.30;;;;;;1738904;81;20557;-86
2023/03/06 03:50:39;;;;;;;;;;;26.60;65.90;;;;;;1725033;82;20348;-86
2023/03/06 03:53:09;;;;;;;;;;;26.70;65.20;;;;;;1713059;82;20241;-86
2023/03/06 03:55:39;;;;;;;;;;;26.80;65.00;;;;;;1738035;81;20241;-86
2023/03/06 03:58:09;;;;;;;;;;;26.90;64.80;;;;;;1727266;81;20264;-88
2023/03/06 04:00:39;;;;;;;;;;;27.00;64.60;;;;;;1771082;77;20384;-87
2023/03/06 04:06:33;;;;;;;;;;;27.20;63.10;;;;;;1808742;78;20176;-88
2023/03/06 04:09:03;;;;;;;;;;;27.30;63.20;;;;;;1807437;78;20136;-87
2023/03/06 04:11:34;;;;;;;;;;;27.40;62.60;;;;;;1811562;77;20189;-88
2023/03/06 04:14:08;;;;;;;;;;;27.50;60.60;;;;;;1840666;76;20220;-87
2023/03/06 04:16:38;;;;;;;;;;;27.70;62.40;;;;;;1839675;76;20179;-83
2023/03/06 04:20:00;;;;;;;;;;;27.80;61.60;;;;;;1859855;76;20301;-83
2023/03/06 04:22:16;;;;;;;;;;;27.90;60.60;;;;;;1829224;76;20205;-85
2023/03/06 04:24:48;;;;;;;;;;;27.90;60.90;;;;;;1855689;76;20213;-85
2023/03/06 04:27:22;;;;;;;;;;;28.00;61.30;;;;;;1866425;76;20508;-83
2023/03/06 04:29:49;;;;;;;;;;;28.00;59.90;;;;;;1843773;77;20586;-83
2023/03/06 04:32:19;;;;;;;;;;;28.00;61.10;;;;;;1844528;76;20188;-85
2023/03/06 04:34:49;;;;;;;;;;;28.10;59.70;;;;;;1842092;76;20193;-83
2023/03/06 04:37:23;;;;;;;;;;;28.20;58.80;;;;;;1850464;77;20170;-84
2023/03/06 04:39:53;;;;;;;;;;;28.20;58.90;;;;;;1862047;76;20287;-83
2023/03/06 04:42:24;;;;;;;;;;;28.30;58.60;;;;;;1836761;77;20579;-84
2023/03/06 04:44:56;;;;;;;;;;;28.30;58.90;;;;;;1844679;77;20627;-83
2023/03/06 04:47:26;;;;;;;;;;;28.30;59.40;;;;;;1842950;77;20272;-85
2023/03/06 04:52:57;;;;;;;;;;;28.40;58.30;;;;;;1846162;77;20205;-86
2023/03/06 04:55:28;;;;;;;;;;;28.40;58.30;;;;;;1849781;76;20671;-88
2023/03/06 04:57:58;;;;;;;;;;;28.50;59.40;;;;;;1848963;77;20599;-87
2023/03/06 05:00:32;;;;;;;;;;;28.60;59.10;;;;;;1823675;79;20126;-88
2023/03/06 05:03:04;;;;;;;;;;;28.70;59.90;;;;;;1821388;77;20455;-89
2023/03/06 05:05:34;;;;;;;;;;;28.70;58.20;;;;;;1785502;80;20182;-87
2023/03/06 05:08:04;;;;;;;;;;;28.80;57.50;;;;;;1786840;78;20533;-87
2023/03/06 05:10:49;;;;;;;;;;;28.80;58.10;;;;;;1787228;78;20279;-86
2023/03/06 05:13:18;;;;;;;;;;;28.80;57.30;;;;;;1820187;77;20196;-88
2023/03/06 05:15:51;;;;;;;;;;;28.90;57.40;;;;;;1810624;78;20220;-88
2023/03/06 05:21:19;;;;;;;;;;;29.00;57.80;;;;;;1855165;75;20235;-88
2023/03/06 05:23:55;;;;;;;;;;;29.00;58.10;;;;;;1846654;77;20190;-88
2023/03/06 05:26:22;;;;;;;;;;;29.00;58.10;;;;;;1855056;75;20321;-87
2023/03/06 05:28:55;;;;;;;;;;;29.00;59.30;;;;;;1856167;77;20193;-89
2023/03/06 05:34:36;;;;;;;;;;;29.00;58.80;;;;;;1828933;75;20987;-88
2023/03/06 05:37:42;;;;;;;;;;;29.10;57.40;;;;;;1847268;75;20171;-88
2023/03/06 05:40:31;;;;;;;;;;;29.10;57.10;;;;;;1739433;82;20417;-86
2023/03/06 05:52:53;;;;;;;;;;;29.20;57.60;;;;;;1840204;76;20267;-84
2023/03/06 05:55:23;;;;;;;;;;;29.20;57.50;;;;;;1814127;77;20251;-84
2023/03/06 05:58:00;;;;;;;;;;;29.30;57.80;;;;;;1855436;76;20516;-85
2023/03/06 06:00:33;;;;;;;;;;;29.40;58.00;;;;;;1855735;77;20122;-83
2023/03/06 06:03:07;;;;;;;;;;;29.40;56.70;;;;;;1857468;75;20893;-84
2023/03/06 06:05:44;;;;;;;;;;;29.30;56.70;;;;;;1861389;77;20213;-83
2023/03/06 06:08:14;;;;;;;;;;;29.40;58.50;;;;;;1850906;77;20224;-82
2023/03/06 06:10:44;;;;;;;;;;;29.50;57.50;;;;;;1844079;77;20209;-83
2023/03/06 06:13:13;;;;;;;;;;;29.50;56.10;;;;;;1844596;77;20640;-81
2023/03/06 06:15:43;;;;;;;;;;;29.60;56.20;;;;;;1845737;76;20187;-83
2023/03/06 06:18:13;;;;;;;;;;;29.60;56.20;;;;;;1840301;77;20256;-83
2023/03/06 06:20:44;;;;;;;;;;;29.60;55.00;;;;;;1857397;76;20261;-84
2023/03/06 06:23:15;;;;;;;;;;;29.70;56.50;;;;;;1839270;76;20514;-81
2023/03/06 06:25:45;;;;;;;;;;;29.70;55.70;;;;;;1820053;77;20196;-81
2023/03/06 06:28:22;;;;;;;;;;;29.60;55.80;;;;;;1846357;77;20389;-84
2023/03/06 06:30:54;;;;;;;;;;;29.70;56.00;;;;;;1828912;77;20518;-84
2023/03/06 06:33:24;;;;;;;;;;;29.70;56.00;;;;;;1847791;77;20158;-84
2023/03/06 06:35:55;;;;;;;;;;;29.70;56.30;;;;;;1789043;79;20143;-83
2023/03/06 06:38:25;;;;;;;;;;;29.80;55.90;;;;;;1791412;79;20213;-83
2023/03/06 06:40:55;;;;;;;;;;;29.80;56.20;;;;;;1787917;78;20217;-83
2023/03/06 06:43:28;;;;;;;;;;;29.80;56.80;;;;;;1778230;78;20186;-84
2023/03/06 06:45:58;;;;;;;;;;;29.90;55.20;;;;;;1823828;77;20238;-84
2023/03/06 06:48:29;;;;;;;;;;;29.90;56.10;;;;;;1828254;76;20202;-85
2023/03/06 06:51:02;;;;;;;;;;;29.90;55.90;;;;;;1827414;77;20245;-83
2023/03/06 06:53:34;;;;;;;;;;;29.90;55.10;;;;;;1805195;79;20134;-83
2023/03/06 06:56:04;;;;;;;;;;;29.90;57.10;;;;;;1813101;78;20222;-83
2023/03/06 06:58:34;;;;;;;;;;;29.90;57.50;;;;;;1822115;78;20194;-83
2023/03/06 07:01:05;;;;;;;;;;;29.90;55.60;;;;;;1833132;78;20411;-83
2023/03/06 07:04:07;;;;;;;;;;;29.90;54.60;;;;;;1810517;78;20467;-83
2023/03/06 07:06:36;;;;;;;;;;;30.00;54.60;;;;;;1791950;78;20210;-83
2023/03/06 07:12:16;;;;;;;;;;;30.00;54.60;;;;;;1742729;79;20194;-83
2023/03/06 07:15:11;;;;;;;;;;;30.00;54.30;;;;;;1762737;79;20261;-82
2023/03/06 07:17:38;;;;;;;;;;;30.00;56.50;;;;;;1808440;78;20286;-83
2023/03/06 07:20:09;;;;;;;;;;;30.00;55.60;;;;;;1791660;80;20417;-83
2023/03/06 07:22:39;;;;;;;;;;;30.00;53.50;;;;;;1786287;80;20293;-83
2023/03/06 07:25:11;;;;;;;;;;;30.00;53.60;;;;;;1792879;80;20453;-82
2023/03/06 07:27:44;;;;;;;;;;;29.90;53.50;;;;;;1804559;77;20256;-83
2023/03/06 07:33:26;;;;;;;;;;;29.90;53.20;;;;;;1820392;79;20128;-84
2023/03/06 07:35:56;;;;;;;;;;;29.90;53.40;;;;;;1818895;79;20224;-86
2023/03/06 07:38:26;;;;;;;;;;;29.80;54.50;;;;;;1825848;77;20196;-84
2023/03/06 07:43:52;;;;;;;;;;;29.80;53.70;;;;;;1826420;77;20186;-84
2023/03/06 07:46:32;;;;;;;;;;;29.80;54.10;;;;;;1832824;77;20185;-84
2023/03/06 07:49:02;;;;;;;;;;;29.80;56.80;;;;;;1842227;74;20229;-84
2023/03/06 07:51:33;;;;;;;;;;;29.80;55.00;;;;;;1816251;79;20195;-85
2023/03/06 07:54:06;;;;;;;;;;;29.80;55.80;;;;;;1818206;76;20186;-82
2023/03/06 07:56:36;;;;;;;;;;;29.80;54.40;;;;;;1850036;76;20236;-84
2023/03/06 07:59:06;;;;;;;;;;;29.80;55.80;;;;;;1848180;77;20320;-85
2023/03/06 08:01:38;;;;;;;;;;;29.90;55.50;;;;;;1884978;76;20276;-85
2023/03/06 08:04:07;;;;;;;;;;;29.80;54.60;;;;;;1889963;75;20155;-85
2023/03/06 08:06:37;;;;;;;;;;;29.80;54.50;;;;;;1857227;75;20495;-84
2023/03/06 08:09:07;;;;;;;;;;;29.80;53.60;;;;;;1864937;75;20157;-86
2023/03/06 08:11:37;;;;;;;;;;;29.80;55.10;;;;;;1861543;75;20205;-84
2023/03/06 08:14:07;;;;;;;;;;;29.80;54.00;;;;;;1840347;75;20482;-85
2023/03/06 08:16:38;;;;;;;;;;;29.80;54.40;;;;;;1828917;78;20120;-83
2023/03/06 08:19:20;;;;;;;;;;;29.90;54.60;;;;;;1829748;78;20132;-83
2023/03/06 08:21:50;;;;;;;;;;;29.90;54.10;;;;;;1869860;75;20311;-83
2023/03/06 08:24:29;;;;;;;;;;;29.80;54.70;;;;;;1859455;75;20233;-86
2023/03/06 08:27:02;;;;;;;;;;;29.80;55.10;;;;;;1846984;75;20297;-85
2023/03/06 08:29:45;;;;;;;;;;;29.80;54.40;;;;;;1862210;77;20130;-83
2023/03/06 08:32:16;;;;;;;;;;;29.80;54.20;;;;;;1845561;77;20369;-86
2023/03/06 08:34:47;;;;;;;;;;;29.70;54.50;;;;;;1861885;77;20122;-85
2023/03/06 08:37:17;;;;;;;;;;;29.80;54.20;;;;;;1861707;76;20224;-82
2023/03/06 08:40:34;;;;;;;;;;;29.80;53.80;;;;;;1857413;77;20165;-84
2023/03/06 08:42:41;;;;;;;;;;;29.80;54.60;;;;;;1816876;77;20159;-85
2023/03/06 08:48:10;;;;;;;;;;;29.80;54.20;;;;;;1825632;78;20128;-83
2023/03/06 08:50:40;;;;;;;;;;;29.80;54.00;;;;;;1824633;78;20327;-85
2023/03/06 08:53:28;;;;;;;;;;;29.80;55.00;;;;;;1842542;76;20185;-85
2023/03/06 08:56:05;;;;;;;;;;;29.80;53.10;;;;;;1855686;74;20204;-83
2023/03/06 08:58:59;;;;;;;;;;;29.80;53.80;;;;;;1838834;75;20231;-83
2023/03/06 09:01:31;;;;;;;;;;;29.70;54.70;;;;;;1817733;77;20537;-84
2023/03/06 09:04:05;;;;;;;;;;;29.70;54.70;;;;;;1809838;77;20202;-83
2023/03/06 09:06:37;;;;;;;;;;;29.70;55.20;;;;;;1849495;76;20205;-84
2023/03/06 09:09:07;;;;;;;;;;;29.60;55.00;;;;;;1853916;76;20181;-82
2023/03/06 09:11:43;;;;;;;;;;;29.60;54.20;;;;;;1850963;76;20251;-84
2023/03/06 09:14:09;;;;;;;;;;;29.60;54.40;;;;;;1856498;76;20188;-84
2023/03/06 09:16:39;;;;;;;;;;;29.60;53.80;;;;;;1848708;76;20211;-84
2023/03/06 09:19:09;;;;;;;;;;;29.60;55.10;;;;;;1814549;79;20507;-84
2023/03/06 09:21:39;;;;;;;;;;;29.60;55.60;;;;;;1848397;77;20167;-83
2023/03/06 09:24:09;;;;;;;;;;;29.60;55.20;;;;;;1842831;77;20255;-84
2023/03/06 09:26:39;;;;;;;;;;;29.60;55.80;;;;;;1856386;77;20476;-84
2023/03/06 09:29:11;;;;;;;;;;;29.50;54.50;;;;;;1858693;77;20216;-83
2023/03/06 09:31:41;;;;;;;;;;;29.40;55.90;;;;;;1860573;77;20161;-83
2023/03/06 09:34:11;;;;;;;;;;;29.50;55.50;;;;;;1853861;77;20231;-85
2023/03/06 09:36:43;;;;;;;;;;;29.40;53.70;;;;;;1821661;77;20253;-86
2023/03/06 09:39:18;;;;;;;;;;;29.40;54.90;;;;;;1855888;75;20188;-84
2023/03/06 09:41:49;;;;;;;;;;;29.40;55.30;;;;;;1856855;77;20213;-84
2023/03/06 09:44:24;;;;;;;;;;;29.40;55.20;;;;;;1839598;76;20163;-84
2023/03/06 09:47:01;;;;;;;;;;;29.30;55.30;;;;;;1788498;78;20190;-83
2023/03/06 09:49:48;;;;;;;;;;;29.30;53.70;;;;;;1797855;79;20185;-84
2023/03/06 09:52:31;;;;;;;;;;;29.30;54.00;;;;;;1788999;78;20469;-85
2023/03/06 09:55:02;;;;;;;;;;;29.20;54.90;;;;;;1825488;77;20291;-83
2023/03/06 09:57:34;;;;;;;;;;;29.30;55.00;;;;;;1826119;78;20241;-85
2023/03/06 10:00:14;;;;;;;;;;;29.20;55.70;;;;;;1817470;79;20188;-84
2023/03/06 10:02:48;;;;;;;;;;;29.20;55.80;;;;;;1817402;77;20231;-83
2023/03/06 10:05:34;;;;;;;;;;;29.20;55.80;;;;;;1821937;79;20211;-82
2023/03/06 10:08:21;;;;;;;;;;;29.10;55.60;;;;;;1817410;79;20702;-88
2023/03/06 10:10:52;;;;;;;;;;;29.10;56.20;;;;;;1758706;81;20401;-83
2023/03/06 10:16:39;;;;;;;;;;;29.10;56.90;;;;;;1778780;80;20636;-82
2023/03/06 10:19:07;;;;;;;;;;;29.10;55.80;;;;;;1770713;80;20182;-82
2023/03/06 10:21:54;;;;;;;;;;;29.00;56.50;;;;;;1790679;80;20190;-84
2023/03/06 10:24:44;;;;;;;;;;;29.00;56.20;;;;;;1827717;77;20196;-84
2023/03/06 10:27:22;;;;;;;;;;;29.00;56.10;;;;;;1824735;78;20248;-83
2023/03/06 10:29:56;;;;;;;;;;;28.90;56.50;;;;;;1821180;77;20312;-90
2023/03/06 10:32:28;;;;;;;;;;;28.90;56.50;;;;;;1797119;78;20469;-88
2023/03/06 10:35:00;;;;;;;;;;;28.90;56.80;;;;;;1788509;79;20382;-86
2023/03/06 10:37:30;;;;;;;;;;;28.90;56.70;;;;;;1828088;77;20258;-86
2023/03/06 10:40:02;;;;;;;;;;;28.80;56.80;;;;;;1802350;78;20618;-84
2023/03/06 10:42:40;;;;;;;;;;;28.80;56.60;;;;;;1783220;80;20217;-87
2023/03/06 10:45:11;;;;;;;;;;;28.80;56.70;;;;;;1784062;80;20474;-86
2023/03/06 10:47:45;;;;;;;;;;;28.80;56.90;;;;;;1786833;80;20217;-87
2023/03/06 10:50:19;;;;;;;;;;;28.70;56.90;;;;;;1734394;81;20562;-87
2023/03/06 10:52:59;;;;;;;;;;;28.70;57.00;;;;;;1787765;80;20261;-86
2023/03/06 10:55:46;;;;;;;;;;;28.70;57.20;;;;;;1799526;80;20160;-89
2023/03/06 10:58:50;;;;;;;;;;;28.70;57.30;;;;;;1792733;78;20284;-87
2023/03/06 11:01:18;;;;;;;;;;;28.70;57.40;;;;;;1749409;80;20297;-85
2023/03/06 11:03:48;;;;;;;;;;;28.60;57.40;;;;;;1767313;80;20172;-87
2023/03/06 11:06:34;;;;;;;;;;;28.60;57.50;;;;;;1795417;77;20196;-87
2023/03/06 11:12:25;;;;;;;;;;;28.50;57.40;;;;;;1739282;81;20330;-87
2023/03/06 11:18:03;;;;;;;;;;;28.50;57.90;;;;;;1790121;80;20231;-88
2023/03/06 11:20:34;;;;;;;;;;;28.40;57.90;;;;;;1805856;78;20227;-87
2023/03/06 11:23:09;;;;;;;;;;;28.40;57.90;;;;;;1829191;77;20443;-89
2023/03/06 11:25:55;;;;;;;;;;;28.40;58.10;;;;;;1803690;77;20189;-88
2023/03/06 11:28:26;;;;;;;;;;;28.40;58.40;;;;;;1799039;80;20142;-88
2023/03/06 11:31:01;;;;;;;;;;;28.40;58.20;;;;;;1798762;80;20166;-87
2023/03/06 11:33:45;;;;;;;;;;;28.30;58.40;;;;;;1737324;81;20252;-90
2023/03/06 11:36:16;;;;;;;;;;;28.30;58.70;;;;;;1761591;80;20487;-91
2023/03/06 11:38:50;;;;;;;;;;;28.30;58.90;;;;;;1757806;81;20229;-88
2023/03/06 11:41:48;;;;;;;;;;;28.30;59.00;;;;;;1762367;80;20125;-88
2023/03/06 11:44:25;;;;;;;;;;;28.20;58.90;;;;;;1785070;79;20188;-89
2023/03/06 11:47:12;;;;;;;;;;;28.20;59.10;;;;;;1789084;79;20643;-90
2023/03/06 11:49:46;;;;;;;;;;;28.20;59.20;;;;;;1755801;81;20264;-89
2023/03/06 11:52:23;;;;;;;;;;;28.20;59.30;;;;;;1752039;81;20198;-89
2023/03/06 11:55:01;;;;;;;;;;;28.20;59.30;;;;;;1761481;79;20387;-89
2023/03/06 11:57:33;;;;;;;;;;;28.10;59.30;;;;;;1763082;80;20738;-89
2023/03/06 12:00:04;;;;;;;;;;;28.10;59.40;;;;;;1755761;80;20228;-90
2023/03/06 12:02:36;;;;;;;;;;;28.10;59.40;;;;;;1743690;80;20232;-93
2023/03/06 12:05:24;;;;;;;;;;;28.10;59.50;;;;;;1759152;80;20141;-90
2023/03/06 12:07:58;;;;;;;;;;;28.10;59.50;;;;;;1818769;78;20210;-89
2023/03/06 12:10:29;;;;;;;;;;;28.10;59.50;;;;;;1841120;78;20221;-89
2023/03/06 12:13:06;;;;;;;;;;;28.10;59.50;;;;;;1837673;78;20132;-87
2023/03/06 12:15:42;;;;;;;;;;;28.00;59.30;;;;;;1841668;78;20166;-87
2023/03/06 12:18:30;;;;;;;;;;;28.00;59.40;;;;;;1832260;78;20339;-88
2023/03/06 12:21:04;;;;;;;;;;;28.00;59.40;;;;;;1832371;77;20228;-88
2023/03/06 12:23:38;;;;;;;;;;;28.00;59.60;;;;;;1857915;77;20193;-88
2023/03/06 12:26:15;;;;;;;;;;;28.00;59.60;;;;;;1828064;78;20474;-87
2023/03/06 12:28:50;;;;;;;;;;;28.00;59.70;;;;;;1854758;77;20225;-88
2023/03/06 12:31:23;;;;;;;;;;;27.90;59.70;;;;;;1845977;77;20160;-87
2023/03/06 12:33:57;;;;;;;;;;;27.90;59.60;;;;;;1859526;77;20501;-88
2023/03/06 12:36:28;;;;;;;;;;;27.90;59.70;;;;;;1839433;77;20200;-88
2023/03/06 12:39:00;;;;;;;;;;;27.90;59.70;;;;;;1829637;77;20232;-86
2023/03/06 12:41:47;;;;;;;;;;;27.90;59.70;;;;;;1826859;78;20545;-87
2023/03/06 12:45:09;;;;;;;;;;;27.90;59.80;;;;;;1819353;77;20374;-87
2023/03/06 13:00:00;;;;;;;;;;;27.70;60.00;;;;;;1843661;76;20217;-87
2023/03/06 13:02:44;;;;;;;;;;;27.70;60.00;;;;;;1848793;76;20297;-87
2023/03/06 13:08:51;;;;;;;;;;;27.70;60.00;;;;;;1735024;78;20312;-86
2023/03/06 13:11:39;;;;;;;;;;;27.70;60.00;;;;;;1877211;76;20199;-87
2023/03/06 13:14:26;;;;;;;;;;;27.70;60.00;;;;;;1840307;77;20170;-88
2023/03/06 13:16:57;;;;;;;;;;;27.70;60.20;;;;;;1851793;77;20236;-89
2023/03/06 13:19:27;;;;;;;;;;;27.60;61.10;;;;;;1851631;76;20193;-89
2023/03/06 13:21:58;;;;;;;;;;;27.70;60.30;;;;;;1853590;77;20154;-88
2023/03/06 13:24:33;;;;;;;;;;;27.70;60.60;;;;;;1854210;77;20291;-89
2023/03/06 13:27:05;;;;;;;;;;;27.60;60.50;;;;;;1853391;77;20141;-88
2023/03/06 13:29:39;;;;;;;;;;;27.60;60.60;;;;;;1852283;77;20181;-88
2023/03/06 13:32:16;;;;;;;;;;;27.60;60.80;;;;;;1835695;77;20184;-88
2023/03/06 13:34:48;;;;;;;;;;;27.60;60.90;;;;;;1846139;77;20213;-89
2023/03/06 13:47:26;;;;;;;;;;;27.50;61.40;;;;;;1681089;84;20188;-88
2023/03/06 13:50:19;;;;;;;;;;;27.40;61.50;;;;;;1720788;82;20215;-89
2023/03/06 13:53:05;;;;;;;;;;;27.40;61.60;;;;;;1701593;83;20288;-88
2023/03/06 13:55:52;;;;;;;;;;;27.40;61.90;;;;;;1719404;83;20349;-89
2023/03/06 13:58:26;;;;;;;;;;;27.30;62.10;;;;;;1718075;83;20247;-88
2023/03/06 14:01:07;;;;;;;;;;;27.30;62.00;;;;;;1699841;83;20295;-87
2023/03/06 14:03:38;;;;;;;;;;;27.30;62.10;;;;;;1688159;83;20377;-88
2023/03/06 14:06:36;;;;;;;;;;;27.30;62.30;;;;;;1717984;82;20374;-88
2023/03/06 14:09:07;;;;;;;;;;;27.20;62.10;;;;;;1721585;82;20242;-87
2023/03/06 14:11:47;;;;;;;;;;;27.20;62.30;;;;;;1744618;81;20367;-89
2023/03/06 14:14:17;;;;;;;;;;;27.20;62.30;;;;;;1769474;81;20243;-88
2023/03/06 14:16:49;;;;;;;;;;;27.20;62.40;;;;;;1770625;81;20232;-86
2023/03/06 14:19:25;;;;;;;;;;;27.20;62.40;;;;;;1808947;78;20176;-88
2023/03/06 14:22:04;;;;;;;;;;;27.20;62.50;;;;;;1848083;77;20174;-88
2023/03/06 14:24:49;;;;;;;;;;;27.10;62.50;;;;;;1862404;75;20611;-88
2023/03/06 14:27:19;;;;;;;;;;;27.20;62.70;;;;;;1832073;77;20179;-88
2023/03/06 14:29:49;;;;;;;;;;;27.10;63.00;;;;;;1802119;78;20232;-88
2023/03/06 14:32:21;;;;;;;;;;;27.10;63.20;;;;;;1829596;77;20159;-89
2023/03/06 14:34:51;;;;;;;;;;;27.10;63.40;;;;;;1828022;78;20294;-88
2023/03/06 14:40:45;;;;;;;;;;;27.00;63.70;;;;;;1813087;77;20204;-88
2023/03/06 14:43:30;;;;;;;;;;;26.90;64.40;;;;;;1862549;77;20193;-88
2023/03/06 14:49:02;;;;;;;;;;;26.90;65.40;;;;;;1853384;76;20123;-88
2023/03/06 14:51:32;;;;;;;;;;;26.80;65.30;;;;;;1861299;75;20248;-88
2023/03/06 14:57:04;;;;;;;;;;;26.70;65.40;;;;;;1883418;76;20526;-88
2023/03/06 15:00:11;;;;;;;;;;;26.60;65.70;;;;;;1846232;77;20226;-89
2023/03/06 15:02:56;;;;;;;;;;;26.60;65.70;;;;;;1850788;75;20484;-89
2023/03/06 15:11:22;;;;;;;;;;;26.60;66.20;;;;;;1827020;77;20242;-88
2023/03/06 15:37:22;;;;;;;;;;;26.50;67.50;;;;;;1915238;71;20404;-88
2023/03/06 15:40:03;;;;;;;;;;;26.30;68.20;;;;;;1874150;75;20361;-88
2023/03/06 15:42:34;;;;;;;;;;;26.30;68.00;;;;;;1901700;74;20216;-88
2023/03/06 15:56:20;;;;;;;;;;;26.20;67.00;;;;;;1904158;75;20182;-88
2023/03/06 15:58:51;;;;;;;;;;;26.20;66.90;;;;;;1869404;76;20176;-87
2023/03/06 16:01:42;;;;;;;;;;;26.20;66.90;;;;;;1829048;76;20159;-88
2023/03/06 16:04:17;;;;;;;;;;;26.20;67.30;;;;;;1855186;75;20521;-89
2023/03/06 16:09:44;;;;;;;;;;;26.10;67.40;;;;;;1886939;75;20170;-89
2023/03/06 16:12:16;;;;;;;;;;;26.10;67.80;;;;;;1874030;75;20206;-89
2023/03/06 16:14:50;;;;;;;;;;;26.10;67.60;;;;;;1863535;75;20240;-89
2023/03/06 16:20:01;;;;;;;;;;;26.00;67.90;;;;;;1877369;76;20174;-88
2023/03/06 16:22:31;;;;;;;;;;;26.00;68.20;;;;;;1869826;75;20190;-90
2023/03/06 16:25:01;;;;;;;;;;;26.00;68.20;;;;;;1865383;74;20284;-88
2023/03/06 16:27:34;;;;;;;;;;;25.90;68.40;;;;;;1857232;76;20184;-87
2023/03/06 16:30:05;;;;;;;;;;;25.90;68.30;;;;;;1878727;75;20430;-88
2023/03/06 16:32:56;;;;;;;;;;;25.90;68.50;;;;;;1898060;74;20234;-88
2023/03/06 16:35:32;;;;;;;;;;;25.90;68.40;;;;;;1891601;74;20178;-87
2023/03/06 16:38:09;;;;;;;;;;;25.90;68.30;;;;;;1893990;73;20193;-88
2023/03/06 16:40:40;;;;;;;;;;;25.90;68.60;;;;;;1891582;74;20233;-87
2023/03/06 16:43:29;;;;;;;;;;;25.90;68.70;;;;;;1850690;75;20365;-88
2023/03/06 16:45:59;;;;;;;;;;;25.80;68.60;;;;;;1874848;75;20228;-89
2023/03/06 16:48:29;;;;;;;;;;;25.90;68.50;;;;;;1881337;76;20184;-88
2023/03/06 16:50:59;;;;;;;;;;;25.80;68.60;;;;;;1890261;75;20158;-88
2023/03/06 16:53:47;;;;;;;;;;;25.90;68.60;;;;;;1894876;75;20586;-87
2023/03/06 16:56:18;;;;;;;;;;;25.90;68.50;;;;;;1881351;75;20217;-87
2023/03/06 16:58:55;;;;;;;;;;;25.90;68.30;;;;;;1893231;74;20197;-88
2023/03/06 17:01:26;;;;;;;;;;;25.80;68.20;;;;;;1900170;73;20303;-87
2023/03/06 17:03:58;;;;;;;;;;;25.80;67.90;;;;;;1895937;73;20473;-87
2023/03/06 17:06:36;;;;;;;;;;;25.80;68.10;;;;;;1911344;73;20170;-88
2023/03/06 17:09:06;;;;;;;;;;;25.80;67.90;;;;;;1919018;73;20207;-88
2023/03/06 17:11:47;;;;;;;;;;;25.80;68.00;;;;;;1894066;74;20257;-87
2023/03/06 17:14:17;;;;;;;;;;;25.80;68.30;;;;;;1867925;76;20218;-89
2023/03/06 17:16:49;;;;;;;;;;;25.80;68.30;;;;;;1867271;75;20246;-87
2023/03/06 17:19:19;;;;;;;;;;;25.80;68.10;;;;;;1872889;75;20255;-88
2023/03/06 17:21:50;;;;;;;;;;;25.80;68.00;;;;;;1869868;76;20246;-87
2023/03/06 17:24:20;;;;;;;;;;;25.80;68.00;;;;;;1872850;76;20584;-88
2023/03/06 17:26:54;;;;;;;;;;;25.80;68.20;;;;;;1834415;76;20236;-88
2023/03/06 17:29:28;;;;;;;;;;;25.70;68.30;;;;;;1866100;75;20209;-88